メインページ
METAR-TAF:

METAR-TAF

空港 :

Orange Municipal Airport

オランジュ, マサチューセッツ州, アメリカ合衆国

緯度: 42-34-18N, 経度: 072-16-39W, 海抜: 169m

現時点の気象観測

当レポートは40分前の02:52(UTC)に作成
の風 4kt
気温 21°C
湿度 64%
気圧 1021 hPa
視程: 16.1km
高度4300ftの雲はほとんどない
高度5500ftの雲は散在している

METAR: KORE 070252Z AUTO 09004KT 10SM FEW043 SCT055 21/14 A3015 RMK AO2 SLP207 T02060144 51013

時間: 23:32 (03:32 UTC)


TAF: 見つかりません

4,000以上の空港の気象観測と天気予報(METAR報とTAF報)

利用可能な観測所は地図上に黄色い丸と赤い丸で示す。

丸の上にカーソルを重ねると観測所名を参照できる。

次にクリックすると気象観測と天気予報を参照できる。

マップの切り替え:黒色「×」印の緑ボタンをクリックして拡大、「-」印の緑ボタンをクリックして縮小、緑色の三角印をクリックして隣りの地図に切り替え


METAR-TAF: